Time;durP1;ratioP1;P1;durP2;ratioP2;P2;SDS_P1;SDS_P2;PMS_P1;PMS_P2;Temp;Humidity;BMP_temperature;BMP_pressure;BME280_temperature;BME280_humidity;BME280_pressure;Samples;Min_cycle;Max_cycle;Signal;HPM_P1;HPM_P2
2021/09/03 00:02:12;;;;;;;14.30;10.75;;;13.80;40.00;;;;;;5080367;28;20443;-70
2021/09/03 00:04:41;;;;;;;11.95;9.25;;;13.80;40.40;;;;;;5077830;28;20131;-72
2021/09/03 00:07:10;;;;;;;13.25;9.43;;;13.80;40.40;;;;;;5077868;28;20054;-72
2021/09/03 00:09:39;;;;;;;10.85;9.55;;;13.80;40.40;;;;;;5076879;28;20045;-72
2021/09/03 00:12:09;;;;;;;13.50;9.13;;;13.80;40.40;;;;;;5081536;28;20727;-71
2021/09/03 00:14:38;;;;;;;14.70;8.85;;;13.80;40.40;;;;;;5077566;28;20056;-71
2021/09/03 00:17:07;;;;;;;12.88;9.15;;;13.70;40.30;;;;;;5071735;28;20052;-71
2021/09/03 00:19:35;;;;;;;15.35;10.10;;;13.70;40.30;;;;;;5081413;28;20225;-71
2021/09/03 00:22:03;;;;;;;14.60;9.95;;;13.70;40.70;;;;;;5078939;28;20067;-73
2021/09/03 00:24:31;;;;;;;14.57;9.43;;;13.70;40.50;;;;;;5078557;28;20048;-71
2021/09/03 00:26:59;;;;;;;12.38;9.63;;;13.70;40.40;;;;;;5076108;28;20071;-71
2021/09/03 00:29:31;;;;;;;12.18;9.25;;;13.70;41.40;;;;;;5067629;28;20040;-72
2021/09/03 00:32:03;;;;;;;12.30;9.23;;;13.70;41.80;;;;;;5076893;28;20041;-71
2021/09/03 00:34:31;;;;;;;13.07;9.23;;;13.70;41.60;;;;;;5076802;28;20044;-73
2021/09/03 00:37:00;;;;;;;12.43;8.93;;;13.60;42.20;;;;;;5075130;28;20055;-71
2021/09/03 00:39:28;;;;;;;14.27;9.40;;;13.50;42.20;;;;;;5081961;28;20064;-71
2021/09/03 00:41:56;;;;;;;13.40;9.23;;;13.50;42.30;;;;;;5081603;28;20040;-71
2021/09/03 00:44:24;;;;;;;12.43;8.75;;;13.50;43.20;;;;;;5078965;28;20500;-71
2021/09/03 00:46:54;;;;;;;12.07;9.20;;;13.40;43.20;;;;;;5075648;28;20044;-72
2021/09/03 00:49:23;;;;;;;11.88;8.88;;;13.40;43.90;;;;;;5077914;28;20087;-70
2021/09/03 00:51:53;;;;;;;11.25;8.57;;;13.40;43.70;;;;;;5076279;28;20123;-72
2021/09/03 00:54:24;;;;;;;12.52;8.98;;;13.40;43.60;;;;;;5075665;28;20058;-72
2021/09/03 00:56:52;;;;;;;12.70;9.23;;;13.30;44.10;;;;;;5079296;28;20079;-71
2021/09/03 00:59:20;;;;;;;13.80;9.50;;;13.30;44.40;;;;;;5078269;28;20109;-72
2021/09/03 01:01:48;;;;;;;13.10;9.43;;;13.30;45.10;;;;;;5082559;28;20047;-72
2021/09/03 01:04:17;;;;;;;12.80;9.52;;;13.30;45.30;;;;;;5078192;28;20058;-72
2021/09/03 01:06:46;;;;;;;13.98;10.30;;;13.30;45.40;;;;;;5075467;28;20058;-71
2021/09/03 01:09:14;;;;;;;13.02;9.82;;;13.30;45.30;;;;;;5079936;28;20056;-71
2021/09/03 01:11:42;;;;;;;14.32;10.63;;;13.30;45.40;;;;;;5079054;28;20087;-72
2021/09/03 01:14:10;;;;;;;12.93;9.77;;;13.30;45.60;;;;;;5078150;28;20566;-72
2021/09/03 01:16:38;;;;;;;12.05;9.07;;;13.20;45.40;;;;;;5072715;28;20105;-72
2021/09/03 01:19:06;;;;;;;13.00;9.57;;;13.10;45.70;;;;;;5079128;28;20693;-71
2021/09/03 01:21:34;;;;;;;12.52;9.48;;;13.00;46.60;;;;;;5079455;28;20131;-72
2021/09/03 01:24:04;;;;;;;19.08;9.60;;;13.00;47.20;;;;;;5081478;28;20048;-71
2021/09/03 01:26:33;;;;;;;14.63;9.32;;;12.90;47.30;;;;;;5077963;28;20567;-70
2021/09/03 01:29:01;;;;;;;12.35;9.10;;;12.90;47.10;;;;;;5082016;28;20147;-70
2021/09/03 01:31:29;;;;;;;13.38;9.43;;;12.80;46.60;;;;;;5082359;28;20131;-71
2021/09/03 01:34:00;;;;;;;15.07;9.43;;;12.80;46.90;;;;;;5078998;28;20048;-71
2021/09/03 01:36:28;;;;;;;11.45;9.55;;;12.70;47.70;;;;;;5078749;28;20093;-71
2021/09/03 01:38:57;;;;;;;13.25;9.77;;;12.70;47.80;;;;;;5083648;28;20075;-71
2021/09/03 01:41:26;;;;;;;12.98;9.48;;;12.80;47.90;;;;;;5081989;28;20083;-71
2021/09/03 01:43:54;;;;;;;12.18;9.75;;;12.80;47.80;;;;;;5079582;28;20089;-71
2021/09/03 01:46:23;;;;;;;13.48;10.02;;;12.70;47.80;;;;;;5080229;28;20045;-71
2021/09/03 01:48:51;;;;;;;13.55;10.07;;;12.70;47.80;;;;;;5082272;28;20097;-71
2021/09/03 01:51:18;;;;;;;13.50;9.43;;;12.70;47.80;;;;;;5085632;28;20097;-71
2021/09/03 01:53:47;;;;;;;14.10;9.48;;;12.60;48.50;;;;;;5076344;28;20396;-71
2021/09/03 01:56:15;;;;;;;12.23;9.35;;;12.60;48.60;;;;;;5083977;28;20068;-72
2021/09/03 01:58:44;;;;;;;13.68;10.05;;;12.50;48.90;;;;;;5082846;28;20048;-71
2021/09/03 02:01:12;;;;;;;12.70;9.70;;;12.50;48.50;;;;;;5081657;28;20454;-72
2021/09/03 02:03:40;;;;;;;14.20;10.23;;;12.50;48.40;;;;;;5081688;28;20044;-72
2021/09/03 02:06:08;;;;;;;12.95;9.57;;;12.50;49.60;;;;;;5078752;28;20130;-71
2021/09/03 02:08:36;;;;;;;12.63;9.70;;;12.40;49.00;;;;;;5083481;28;20047;-71
2021/09/03 02:11:04;;;;;;;12.88;9.63;;;12.40;49.70;;;;;;5085993;28;20166;-72
2021/09/03 02:13:32;;;;;;;15.32;10.77;;;12.40;50.00;;;;;;5074800;28;20049;-72
2021/09/03 02:16:01;;;;;;;14.07;10.95;;;12.40;50.10;;;;;;5080577;28;20451;-71
2021/09/03 02:18:30;;;;;;;12.93;9.68;;;12.40;50.80;;;;;;5080104;28;20299;-71
2021/09/03 02:20:58;;;;;;;13.00;10.43;;;12.40;50.90;;;;;;5087566;28;20075;-71
2021/09/03 02:23:26;;;;;;;11.85;9.32;;;12.30;50.50;;;;;;5078592;28;20039;-71
2021/09/03 02:25:54;;;;;;;11.95;9.88;;;12.30;50.70;;;;;;5080008;28;20048;-71
2021/09/03 02:28:22;;;;;;;12.77;9.85;;;12.30;51.30;;;;;;5079859;28;20170;-71
2021/09/03 02:30:50;;;;;;;13.27;10.25;;;12.30;51.50;;;;;;5083975;28;20082;-71
2021/09/03 02:33:20;;;;;;;13.23;10.48;;;12.40;51.60;;;;;;5072648;28;20040;-71
2021/09/03 02:35:48;;;;;;;13.63;10.15;;;12.40;50.70;;;;;;5080363;28;20080;-71
2021/09/03 02:38:16;;;;;;;12.38;9.50;;;12.40;50.60;;;;;;5084415;28;20052;-71
2021/09/03 02:40:44;;;;;;;12.57;10.02;;;12.40;50.50;;;;;;5058687;28;20045;-71
2021/09/03 02:43:12;;;;;;;14.45;10.80;;;12.40;51.00;;;;;;5078122;28;20040;-71
2021/09/03 02:45:40;;;;;;;13.05;10.13;;;12.50;50.50;;;;;;5077661;28;20618;-71
2021/09/03 02:48:08;;;;;;;11.57;9.60;;;12.40;50.40;;;;;;5078427;28;20162;-71
2021/09/03 02:50:38;;;;;;;14.32;10.10;;;12.40;50.60;;;;;;5082271;28;20062;-71
2021/09/03 02:53:06;;;;;;;12.38;9.27;;;12.30;51.20;;;;;;5081170;28;20523;-71
2021/09/03 02:55:33;;;;;;;15.77;11.00;;;12.30;51.50;;;;;;5081093;28;20174;-71
2021/09/03 02:58:01;;;;;;;16.58;10.60;;;12.20;51.40;;;;;;5080156;28;20054;-71
2021/09/03 03:00:29;;;;;;;15.65;11.02;;;12.20;51.40;;;;;;5084405;28;20060;-71
2021/09/03 03:02:58;;;;;;;16.65;10.65;;;12.20;51.50;;;;;;5076206;28;20065;-71
2021/09/03 03:05:26;;;;;;;13.77;10.27;;;12.20;51.40;;;;;;5079813;28;20083;-71
2021/09/03 03:07:56;;;;;;;12.70;9.70;;;12.20;51.40;;;;;;5080693;28;20094;-71
2021/09/03 03:10:24;;;;;;;13.82;10.73;;;12.20;51.40;;;;;;5081974;28;20048;-71
2021/09/03 03:12:53;;;;;;;16.95;10.20;;;12.20;51.40;;;;;;5080981;28;20050;-71
2021/09/03 03:15:23;;;;;;;12.75;10.25;;;12.10;51.30;;;;;;5083114;28;20123;-71
2021/09/03 03:17:51;;;;;;;13.68;10.43;;;12.00;51.30;;;;;;5078360;28;20136;-71
2021/09/03 03:20:20;;;;;;;12.98;10.20;;;12.00;51.60;;;;;;5058534;28;20045;-71
2021/09/03 03:22:48;;;;;;;12.77;10.45;;;12.00;51.30;;;;;;5069578;28;20048;-71
2021/09/03 03:25:17;;;;;;;14.00;10.27;;;11.80;51.20;;;;;;5076913;28;20054;-71
2021/09/03 03:27:45;;;;;;;13.38;10.73;;;11.80;52.60;;;;;;5078215;28;20495;-71
2021/09/03 03:30:18;;;;;;;14.90;10.82;;;11.90;52.70;;;;;;5083420;28;20040;-71
2021/09/03 03:32:46;;;;;;;13.93;10.52;;;11.90;52.50;;;;;;5080382;28;20048;-71
2021/09/03 03:35:14;;;;;;;14.32;10.57;;;11.90;52.60;;;;;;5080650;28;20071;-72
2021/09/03 03:37:42;;;;;;;15.50;10.38;;;11.80;52.10;;;;;;5076257;28;20044;-70
2021/09/03 03:40:11;;;;;;;15.43;10.88;;;11.80;52.80;;;;;;5080472;28;20838;-72
2021/09/03 03:42:41;;;;;;;13.45;10.15;;;11.80;53.40;;;;;;5079843;28;20052;-71
2021/09/03 03:45:10;;;;;;;13.32;10.27;;;11.70;53.20;;;;;;5079303;28;20089;-71
2021/09/03 03:47:38;;;;;;;15.18;10.75;;;11.70;53.60;;;;;;5078769;28;20054;-71
2021/09/03 03:50:08;;;;;;;16.40;10.30;;;11.70;53.70;;;;;;5082692;28;20120;-71
2021/09/03 03:52:36;;;;;;;13.82;11.05;;;11.70;53.50;;;;;;5082001;28;20079;-71
2021/09/03 03:55:04;;;;;;;16.80;10.32;;;11.80;53.20;;;;;;5078176;28;20044;-71
2021/09/03 03:57:33;;;;;;;12.30;9.98;;;11.90;52.90;;;;;;5082593;28;20070;-71
2021/09/03 04:00:02;;;;;;;12.93;9.57;;;11.90;52.20;;;;;;5079004;28;20048;-71
2021/09/03 04:02:30;;;;;;;12.43;9.93;;;11.80;51.70;;;;;;5076673;28;20500;-71
2021/09/03 04:04:58;;;;;;;12.07;9.80;;;11.90;51.80;;;;;;5073383;28;20041;-71
2021/09/03 04:07:26;;;;;;;15.48;10.68;;;11.80;51.50;;;;;;5064427;28;20048;-71
2021/09/03 04:09:54;;;;;;;15.90;10.77;;;11.80;51.60;;;;;;5079731;28;20076;-71
2021/09/03 04:12:22;;;;;;;16.85;10.50;;;11.80;52.00;;;;;;5079511;28;20127;-71
2021/09/03 04:14:50;;;;;;;13.10;10.43;;;11.70;51.50;;;;;;5078265;28;20044;-71
2021/09/03 04:17:20;;;;;;;14.75;10.90;;;11.70;52.10;;;;;;5080989;28;20089;-71
2021/09/03 04:19:48;;;;;;;18.00;10.10;;;11.70;52.50;;;;;;5067362;28;20089;-71
2021/09/03 04:22:16;;;;;;;18.00;10.63;;;11.70;52.40;;;;;;5080797;28;20487;-71
2021/09/03 04:24:45;;;;;;;16.38;11.05;;;11.60;52.00;;;;;;5076965;28;20084;-71
2021/09/03 04:27:13;;;;;;;17.77;10.30;;;11.60;52.30;;;;;;5077158;28;20079;-71
2021/09/03 04:29:40;;;;;;;13.32;9.98;;;11.50;51.80;;;;;;5082472;28;20107;-71
2021/09/03 04:32:08;;;;;;;14.10;10.25;;;11.50;52.20;;;;;;5079273;28;20087;-71
2021/09/03 04:34:38;;;;;;;14.48;10.25;;;11.50;52.40;;;;;;5079802;28;20076;-71
2021/09/03 04:37:06;;;;;;;16.48;10.30;;;11.60;52.60;;;;;;5074920;28;20587;-71
2021/09/03 04:39:34;;;;;;;16.70;11.30;;;11.60;52.40;;;;;;5077901;28;20060;-71
2021/09/03 04:42:03;;;;;;;13.45;9.57;;;11.50;51.90;;;;;;5083442;28;20053;-72
2021/09/03 04:44:31;;;;;;;14.80;10.35;;;11.50;51.60;;;;;;5076356;28;20045;-72
2021/09/03 04:46:59;;;;;;;15.90;10.10;;;11.40;51.90;;;;;;5075316;28;20052;-71
2021/09/03 04:49:27;;;;;;;14.15;10.57;;;11.40;52.70;;;;;;5083067;28;20560;-71
2021/09/03 04:51:56;;;;;;;15.98;10.50;;;11.60;52.80;;;;;;5080430;28;20054;-71
2021/09/03 04:54:24;;;;;;;14.13;9.55;;;11.60;52.10;;;;;;5080119;28;20036;-71
2021/09/03 04:56:52;;;;;;;18.05;10.23;;;11.70;51.80;;;;;;5079549;28;20047;-70
2021/09/03 04:59:20;;;;;;;16.98;10.23;;;11.80;51.10;;;;;;5082503;28;20052;-71
2021/09/03 05:01:48;;;;;;;15.90;10.82;;;11.90;50.60;;;;;;5078664;28;20052;-71
2021/09/03 05:04:28;;;;;;;15.77;10.38;;;12.80;44.00;;;;;;5077682;28;20447;-71
2021/09/03 05:06:57;;;;;;;14.60;9.70;;;13.70;29.90;;;;;;5078145;28;20493;-71
2021/09/03 05:09:25;;;;;;;13.38;9.93;;;13.90;23.50;;;;;;5076220;28;20090;-71
2021/09/03 05:11:53;;;;;;;12.35;9.10;;;14.50;18.20;;;;;;5080844;28;20086;-71
2021/09/03 05:14:21;;;;;;;11.80;8.88;;;14.80;13.30;;;;;;5078498;28;20083;-71
2021/09/03 05:16:50;;;;;;;12.45;9.27;;;15.50;11.50;;;;;;5072647;28;20610;-71
2021/09/03 05:19:18;;;;;;;14.10;8.20;;;15.40;9.80;;;;;;5079416;28;20180;-71
2021/09/03 05:21:47;;;;;;;15.27;9.10;;;15.50;6.70;;;;;;5079143;28;20552;-71
2021/09/03 05:24:16;;;;;;;11.25;8.65;;;15.60;7.90;;;;;;5075145;28;20315;-71
2021/09/03 05:26:44;;;;;;;12.85;8.98;;;15.90;4.20;;;;;;5074151;28;20063;-71
2021/09/03 05:29:12;;;;;;;12.13;7.90;;;16.00;4.60;;;;;;5075637;28;20135;-71
2021/09/03 05:31:40;;;;;;;10.77;8.30;;;16.20;4.10;;;;;;5076390;28;20048;-71
2021/09/03 05:34:08;;;;;;;10.30;8.38;;;14.90;9.50;;;;;;5079322;28;20507;-71
2021/09/03 05:36:36;;;;;;;12.13;8.73;;;13.90;18.20;;;;;;5077178;28;20080;-72
2021/09/03 05:39:04;;;;;;;10.52;8.10;;;13.70;23.10;;;;;;5079093;28;20147;-71
2021/09/03 05:41:34;;;;;;;12.77;8.68;;;13.70;23.00;;;;;;5078895;28;20052;-71
2021/09/03 05:44:02;;;;;;;11.77;8.27;;;13.60;24.50;;;;;;5078736;28;20180;-71
2021/09/03 05:46:30;;;;;;;11.70;8.73;;;13.60;24.50;;;;;;5068676;28;20420;-70
2021/09/03 05:48:58;;;;;;;12.10;8.73;;;13.50;26.10;;;;;;5078938;28;20123;-71
2021/09/03 05:51:26;;;;;;;12.38;9.00;;;13.50;25.40;;;;;;5078430;28;20109;-72
2021/09/03 05:53:54;;;;;;;17.02;8.88;;;13.60;26.00;;;;;;5079152;28;20131;-71
2021/09/03 05:56:22;;;;;;;13.52;8.95;;;13.60;25.60;;;;;;5075293;28;20062;-71
2021/09/03 05:58:51;;;;;;;13.43;8.60;;;13.60;24.60;;;;;;5080359;28;20524;-71
2021/09/03 06:01:19;;;;;;;11.07;8.82;;;13.70;26.00;;;;;;5080438;28;20048;-72
2021/09/03 06:03:47;;;;;;;13.20;8.93;;;13.80;24.50;;;;;;5079653;28;20055;-71
2021/09/03 06:06:15;;;;;;;11.70;8.13;;;14.00;23.80;;;;;;5081151;28;20048;-71
2021/09/03 06:08:43;;;;;;;13.13;7.93;;;14.20;24.80;;;;;;5079021;28;20098;-70
2021/09/03 06:11:11;;;;;;;15.85;8.85;;;14.20;22.40;;;;;;5080523;28;20058;-70
2021/09/03 06:13:39;;;;;;;12.60;8.75;;;14.30;23.00;;;;;;5081538;28;20036;-71
2021/09/03 06:16:08;;;;;;;13.77;9.70;;;14.40;22.60;;;;;;5080111;28;20052;-72
2021/09/03 06:18:37;;;;;;;10.43;8.15;;;14.40;23.40;;;;;;5081228;28;20036;-71
2021/09/03 06:21:05;;;;;;;13.57;8.30;;;14.50;23.00;;;;;;5083484;28;20052;-71
2021/09/03 06:23:33;;;;;;;10.52;8.10;;;14.40;21.60;;;;;;5085096;28;20080;-71
2021/09/03 06:26:01;;;;;;;14.93;8.88;;;14.20;23.50;;;;;;5079285;28;20040;-72
2021/09/03 06:28:29;;;;;;;11.80;8.95;;;14.60;22.70;;;;;;5083708;28;20040;-71
2021/09/03 06:30:57;;;;;;;10.52;8.45;;;14.70;20.50;;;;;;5082840;28;20056;-72
2021/09/03 06:33:26;;;;;;;16.27;8.52;;;14.80;19.50;;;;;;5083925;28;20131;-71
2021/09/03 06:35:54;;;;;;;11.35;8.73;;;14.70;19.30;;;;;;5075712;28;20516;-71
2021/09/03 06:38:23;;;;;;;12.63;8.50;;;14.90;19.30;;;;;;5076477;28;20471;-71
2021/09/03 06:40:50;;;;;;;13.07;8.95;;;14.90;20.60;;;;;;5078738;28;20087;-71
2021/09/03 06:43:18;;;;;;;12.07;8.23;;;14.90;19.00;;;;;;5081261;28;20052;-71
2021/09/03 06:45:46;;;;;;;13.77;8.52;;;14.90;18.40;;;;;;5075469;28;20045;-71
2021/09/03 06:48:14;;;;;;;13.25;9.75;;;15.10;18.50;;;;;;5081407;28;20055;-72
2021/09/03 06:50:44;;;;;;;11.73;8.82;;;15.20;17.40;;;;;;5082871;28;20071;-72
2021/09/03 06:53:22;;;;;;;10.95;8.02;;;15.10;16.10;;;;;;5079752;28;20052;-71
2021/09/03 06:55:50;;;;;;;13.13;8.57;;;15.30;16.20;;;;;;5080772;28;20052;-71
2021/09/03 06:58:18;;;;;;;9.15;7.53;;;15.60;15.30;;;;;;5079784;28;20055;-72
2021/09/03 07:00:46;;;;;;;12.77;8.05;;;15.70;14.90;;;;;;5083149;28;20040;-71
2021/09/03 07:03:14;;;;;;;15.75;7.82;;;15.90;13.60;;;;;;5082960;28;20117;-72
2021/09/03 07:05:43;;;;;;;11.65;7.95;;;15.80;11.80;;;;;;5078282;28;20097;-71
2021/09/03 07:08:11;;;;;;;11.43;7.57;;;15.90;11.80;;;;;;5052472;28;20040;-71
2021/09/03 07:10:39;;;;;;;10.57;7.65;;;16.10;10.90;;;;;;5080708;28;20055;-71
2021/09/03 07:13:11;;;;;;;9.85;7.00;;;16.10;9.30;;;;;;5085758;28;20168;-71
2021/09/03 07:15:39;;;;;;;10.63;7.38;;;16.00;9.90;;;;;;5079294;28;20506;-72
2021/09/03 07:18:07;;;;;;;11.23;7.93;;;16.10;9.70;;;;;;5081840;28;20595;-72
2021/09/03 07:20:35;;;;;;;10.35;7.30;;;16.20;9.80;;;;;;5083264;28;20076;-72
2021/09/03 07:23:05;;;;;;;10.70;7.38;;;16.30;8.50;;;;;;5085131;28;20043;-72
2021/09/03 07:25:33;;;;;;;10.63;7.97;;;16.40;8.50;;;;;;5075487;28;20044;-72
2021/09/03 07:28:01;;;;;;;10.98;7.65;;;16.40;8.50;;;;;;5078232;28;20044;-71
2021/09/03 07:30:29;;;;;;;9.23;7.13;;;16.50;8.50;;;;;;5079149;28;20415;-72
2021/09/03 07:32:56;;;;;;;8.68;7.45;;;16.70;7.50;;;;;;5082575;28;20067;-71
2021/09/03 07:35:24;;;;;;;9.80;6.90;;;16.60;5.90;;;;;;5072785;28;20059;-71
2021/09/03 07:37:52;;;;;;;9.73;7.30;;;16.80;6.10;;;;;;5081410;28;20644;-71
2021/09/03 07:40:22;;;;;;;10.35;6.78;;;16.90;5.00;;;;;;5079676;28;20052;-72
2021/09/03 07:42:50;;;;;;;10.45;6.82;;;16.70;5.30;;;;;;5081930;28;20557;-71
2021/09/03 07:45:18;;;;;;;10.25;7.82;;;16.60;5.30;;;;;;5072667;28;20049;-71
2021/09/03 07:47:46;;;;;;;11.13;7.35;;;16.90;4.90;;;;;;5079948;28;20461;-71
2021/09/03 07:50:17;;;;;;;10.40;7.05;;;16.70;4.90;;;;;;5075447;28;20182;-71
2021/09/03 07:52:45;;;;;;;17.42;12.40;;;16.90;5.00;;;;;;5079639;28;20052;-72
2021/09/03 07:55:35;;;;;;;12.55;7.70;;;17.20;5.20;;;;;;5073587;28;20127;-70
2021/09/03 07:58:04;;;;;;;11.43;7.35;;;17.30;4.20;;;;;;5081155;28;20108;-69
2021/09/03 08:00:32;;;;;;;12.02;7.70;;;17.20;4.80;;;;;;5076953;28;20125;-72
2021/09/03 08:03:00;;;;;;;10.10;7.22;;;17.60;3.90;;;;;;5079577;28;20056;-71
2021/09/03 08:05:29;;;;;;;9.07;6.43;;;17.80;3.50;;;;;;5076297;28;20517;-72
2021/09/03 08:07:57;;;;;;;10.18;7.15;;;18.00;2.10;;;;;;5077392;28;20074;-72
2021/09/03 08:10:26;;;;;;;13.27;7.78;;;17.90;1.90;;;;;;5083024;28;20464;-70
2021/09/03 08:12:55;;;;;;;12.20;7.28;;;17.60;1.00;;;;;;5081814;28;20056;-71
2021/09/03 08:15:23;;;;;;;11.50;8.27;;;17.60;1.70;;;;;;5079994;28;20101;-72
2021/09/03 08:17:51;;;;;;;11.40;7.43;;;17.60;1.50;;;;;;5081018;28;20044;-71
2021/09/03 08:20:19;;;;;;;9.13;6.95;;;17.50;2.10;;;;;;5059494;28;20056;-71
2021/09/03 08:22:50;;;;;;;10.55;7.38;;;17.80;1.80;;;;;;5060618;28;20057;-72
2021/09/03 08:25:18;;;;;;;10.13;7.10;;;17.80;1.10;;;;;;5055542;28;20492;-71
2021/09/03 08:27:57;;;;;;;8.65;6.93;;;17.80;1.00;;;;;;5059933;28;20127;-71
2021/09/03 08:30:26;;;;;;;10.75;7.05;;;18.10;1.00;;;;;;5063147;28;20049;-71
2021/09/03 08:32:54;;;;;;;9.98;6.88;;;18.20;1.00;;;;;;5058067;28;20063;-72
2021/09/03 08:35:23;;;;;;;8.98;6.68;;;18.50;1.00;;;;;;5057142;28;20579;-71
2021/09/03 08:37:52;;;;;;;9.88;6.68;;;18.60;1.00;;;;;;5057845;28;20508;-70
2021/09/03 08:40:20;;;;;;;10.38;6.70;;;18.60;1.00;;;;;;5060142;28;20057;-71
2021/09/03 08:42:49;;;;;;;8.65;6.38;;;18.50;1.00;;;;;;5061762;28;20496;-71
2021/09/03 08:45:18;;;;;;;11.60;6.70;;;18.40;1.00;;;;;;5059328;28;20057;-72
2021/09/03 08:47:47;;;;;;;12.63;7.15;;;18.70;1.00;;;;;;5056429;28;20061;-72
2021/09/03 08:50:17;;;;;;;10.43;6.90;;;18.60;1.00;;;;;;5059439;28;20048;-72
2021/09/03 08:52:47;;;;;;;8.32;6.45;;;18.60;1.00;;;;;;5059957;28;20086;-71
2021/09/03 08:55:16;;;;;;;8.52;6.85;;;18.20;1.00;;;;;;5055230;28;20040;-72
2021/09/03 08:57:44;;;;;;;12.20;6.95;;;18.80;1.00;;;;;;5060651;28;20692;-72
2021/09/03 09:00:23;;;;;;;9.07;6.57;;;19.00;1.00;;;;;;5058014;28;20048;-73
2021/09/03 09:03:00;;;;;;;10.35;6.32;;;19.30;1.00;;;;;;5063903;28;20065;-72
2021/09/03 09:05:52;;;;;;;12.85;7.00;;;19.40;1.00;;;;;;5076153;28;20139;-72
2021/09/03 09:08:22;;;;;;;8.57;6.97;;;19.10;1.00;;;;;;5080054;28;20048;-72
2021/09/03 09:10:52;;;;;;;9.68;6.90;;;19.40;1.00;;;;;;5078691;28;20048;-71
2021/09/03 09:13:23;;;;;;;9.63;6.88;;;19.20;1.00;;;;;;5083943;28;20044;-71
2021/09/03 09:16:01;;;;;;;11.35;6.90;;;19.20;1.00;;;;;;5071874;28;20045;-71
2021/09/03 09:18:42;;;;;;;8.40;6.57;;;19.50;1.00;;;;;;5075610;28;20521;-71
2021/09/03 09:21:26;;;;;;;9.95;6.95;;;19.80;1.00;;;;;;5079090;28;20527;-72
2021/09/03 09:23:56;;;;;;;9.90;6.93;;;19.70;1.00;;;;;;5081078;28;20048;-72
2021/09/03 09:26:27;;;;;;;7.65;5.85;;;19.60;1.00;;;;;;5075306;28;20106;-72
2021/09/03 09:28:56;;;;;;;10.52;6.50;;;19.70;1.00;;;;;;5077351;28;20105;-71
2021/09/03 09:31:33;;;;;;;9.95;7.00;;;19.40;1.00;;;;;;5080069;28;20051;-72
2021/09/03 09:34:16;;;;;;;10.98;6.82;;;19.60;1.00;;;;;;5078661;28;20055;-71
2021/09/03 09:36:45;;;;;;;10.57;6.68;;;19.80;1.00;;;;;;5075050;28;20055;-72
2021/09/03 09:39:13;;;;;;;9.27;7.22;;;19.80;1.00;;;;;;5079914;28;20044;-71
2021/09/03 09:41:43;;;;;;;7.80;6.20;;;19.80;1.00;;;;;;5078507;28;20066;-71
2021/09/03 09:44:12;;;;;;;7.85;6.05;;;20.00;1.00;;;;;;5083546;28;20161;-72
2021/09/03 09:46:41;;;;;;;7.93;6.20;;;20.30;1.00;;;;;;5081142;28;20044;-71
2021/09/03 09:49:11;;;;;;;7.00;5.45;;;20.30;1.00;;;;;;5077729;28;20556;-72
2021/09/03 09:51:42;;;;;;;8.75;5.75;;;19.90;1.00;;;;;;5083812;28;20051;-71
2021/09/03 09:54:14;;;;;;;8.75;6.50;;;20.10;1.00;;;;;;5081694;28;20051;-73
2021/09/03 09:56:45;;;;;;;7.70;5.60;;;20.30;1.00;;;;;;5083024;28;20703;-72
2021/09/03 09:59:14;;;;;;;9.02;6.07;;;20.80;1.00;;;;;;5082317;28;20051;-74
2021/09/03 10:01:47;;;;;;;6.88;5.75;;;20.90;1.00;;;;;;5080397;28;20085;-73
2021/09/03 10:04:18;;;;;;;6.70;5.50;;;20.70;1.00;;;;;;5079417;28;20437;-72
2021/09/03 10:06:49;;;;;;;6.90;5.70;;;21.10;1.00;;;;;;5077197;28;20247;-73
2021/09/03 10:09:18;;;;;;;9.35;6.00;;;20.90;1.00;;;;;;5081390;28;20044;-73
2021/09/03 10:11:48;;;;;;;10.55;5.60;;;21.00;1.00;;;;;;5080481;28;20060;-72
2021/09/03 10:14:20;;;;;;;7.90;5.63;;;21.00;1.00;;;;;;5081858;28;20036;-71
2021/09/03 10:16:51;;;;;;;6.82;5.55;;;21.30;1.00;;;;;;5080208;28;20048;-71
2021/09/03 10:19:24;;;;;;;7.47;5.43;;;21.60;1.00;;;;;;5083974;28;20048;-72
2021/09/03 10:21:55;;;;;;;10.93;5.72;;;21.30;1.00;;;;;;5082153;28;20114;-73
2021/09/03 10:24:26;;;;;;;6.50;5.25;;;21.50;1.00;;;;;;5081183;28;20106;-72
2021/09/03 10:26:57;;;;;;;6.32;5.18;;;21.50;1.00;;;;;;5079595;28;20052;-72
2021/09/03 10:29:31;;;;;;;8.85;5.20;;;21.70;1.00;;;;;;5082323;28;20162;-72
2021/09/03 10:32:17;;;;;;;7.30;5.28;;;21.90;1.00;;;;;;5081791;28;20055;-71
2021/09/03 10:35:04;;;;;;;6.28;5.13;;;22.10;1.00;;;;;;5076650;28;20051;-71
2021/09/03 10:37:38;;;;;;;10.52;5.10;;;21.80;1.00;;;;;;5082447;28;20044;-72
2021/09/03 10:40:39;;;;;;;7.22;4.93;;;22.00;1.00;;;;;;5082158;28;20047;-72
2021/09/03 10:43:07;;;;;;;5.95;4.88;;;22.10;1.00;;;;;;5063331;28;20051;-72
2021/09/03 10:45:42;;;;;;;6.43;5.00;;;22.20;1.00;;;;;;5079232;28;20040;-71
2021/09/03 10:48:18;;;;;;;10.55;5.22;;;22.20;1.00;;;;;;5080963;28;20043;-72
2021/09/03 10:50:53;;;;;;;6.93;5.20;;;22.40;1.00;;;;;;5079919;28;20456;-71
2021/09/03 10:53:24;;;;;;;6.90;5.22;;;22.40;1.00;;;;;;5063913;28;20044;-71
2021/09/03 10:56:22;;;;;;;8.48;5.13;;;22.00;1.00;;;;;;5077430;28;20965;-72
2021/09/03 10:58:55;;;;;;;8.13;6.05;;;21.80;1.00;;;;;;5076036;28;20036;-73
2021/09/03 11:01:45;;;;;;;9.13;5.80;;;22.50;1.00;;;;;;5081344;28;20628;-72
2021/09/03 11:04:16;;;;;;;6.18;5.05;;;22.60;1.00;;;;;;5077537;28;20098;-72
2021/09/03 11:07:04;;;;;;;7.05;5.18;;;22.60;1.00;;;;;;5076644;28;20130;-72
2021/09/03 11:09:32;;;;;;;7.13;5.28;;;22.60;1.00;;;;;;5081611;28;20043;-72
2021/09/03 11:12:04;;;;;;;7.80;5.57;;;22.60;1.00;;;;;;5079993;28;20056;-72
2021/09/03 11:14:33;;;;;;;8.05;4.70;;;22.30;1.00;;;;;;5080954;28;20048;-72
2021/09/03 11:17:02;;;;;;;7.72;5.30;;;22.30;1.00;;;;;;5076255;28;20048;-72
2021/09/03 11:19:34;;;;;;;7.78;5.28;;;22.40;1.00;;;;;;5079796;28;20158;-72
2021/09/03 11:22:04;;;;;;;7.38;4.97;;;22.50;1.00;;;;;;5083041;28;20044;-72
2021/09/03 11:24:34;;;;;;;6.35;4.90;;;22.90;1.00;;;;;;5078345;28;20489;-73
2021/09/03 11:27:05;;;;;;;6.60;5.18;;;22.60;1.00;;;;;;5077746;28;20143;-72
2021/09/03 11:29:35;;;;;;;6.78;4.88;;;22.30;1.00;;;;;;5082031;28;20178;-72
2021/09/03 11:32:10;;;;;;;7.32;5.45;;;22.80;1.00;;;;;;5077724;28;20504;-72
2021/09/03 11:34:54;;;;;;;6.13;4.80;;;22.60;1.00;;;;;;5078876;28;20053;-71
2021/09/03 11:37:26;;;;;;;6.82;5.30;;;22.90;1.00;;;;;;5077312;28;20044;-72
2021/09/03 11:39:56;;;;;;;5.53;4.60;;;22.80;1.00;;;;;;5079433;28;20048;-73
2021/09/03 11:42:26;;;;;;;5.95;5.07;;;22.90;1.00;;;;;;5081521;28;20036;-72
2021/09/03 11:44:57;;;;;;;7.07;5.07;;;23.00;1.00;;;;;;5080019;28;20639;-72
2021/09/03 11:47:28;;;;;;;8.05;5.07;;;23.10;1.00;;;;;;5077072;28;20049;-72
2021/09/03 11:49:57;;;;;;;6.85;4.82;;;23.20;1.00;;;;;;5081608;28;20048;-72
2021/09/03 11:52:30;;;;;;;6.80;4.88;;;23.20;1.00;;;;;;5080631;28;20515;-72
2021/09/03 11:54:59;;;;;;;6.38;4.70;;;23.30;1.00;;;;;;5079346;28;20131;-72
2021/09/03 11:57:49;;;;;;;6.20;4.53;;;23.10;1.00;;;;;;5078615;28;22137;-72
2021/09/03 12:00:19;;;;;;;8.30;4.55;;;23.30;1.00;;;;;;5083459;28;20044;-73
2021/09/03 12:02:49;;;;;;;6.85;4.45;;;23.30;1.00;;;;;;5066671;28;20055;-72
2021/09/03 12:05:20;;;;;;;6.78;4.75;;;23.40;1.00;;;;;;5069247;28;20076;-73
2021/09/03 12:08:06;;;;;;;9.18;4.60;;;23.30;1.00;;;;;;5065975;28;20458;-73
2021/09/03 12:10:38;;;;;;;6.35;4.45;;;23.50;1.00;;;;;;5061070;28;20127;-72
2021/09/03 12:13:12;;;;;;;6.05;4.68;;;23.80;1.00;;;;;;5078886;28;20535;-72
2021/09/03 12:15:47;;;;;;;5.97;4.35;;;23.90;1.00;;;;;;5077036;28;20048;-72
2021/09/03 12:18:25;;;;;;;6.43;4.45;;;23.80;1.00;;;;;;5076491;28;20040;-72
2021/09/03 12:20:57;;;;;;;6.15;4.45;;;23.70;1.00;;;;;;5064343;28;20052;-72
2021/09/03 12:23:31;;;;;;;5.25;4.40;;;23.80;1.00;;;;;;5081015;28;20403;-74
2021/09/03 12:26:04;;;;;;;5.47;4.23;;;23.90;1.00;;;;;;5075777;28;20097;-73
2021/09/03 12:28:32;;;;;;;7.60;5.20;;;24.00;1.00;;;;;;5078387;28;20298;-73
2021/09/03 12:31:07;;;;;;;6.82;5.03;;;24.10;1.00;;;;;;5063826;28;20048;-73
2021/09/03 12:33:35;;;;;;;;;;;24.30;1.00;;;;;;5080693;28;20040;-71
2021/09/03 12:36:11;;;;;;;6.82;4.60;;;24.10;1.00;;;;;;5074822;28;19928;-72
2021/09/03 12:38:43;;;;;;;4.90;4.40;;;24.00;1.00;;;;;;5047936;28;20098;-72
2021/09/03 12:41:17;;;;;;;4.88;4.20;;;24.20;1.00;;;;;;5074263;28;20497;-73
2021/09/03 12:44:04;;;;;;;5.95;4.32;;;24.00;1.00;;;;;;5077459;28;20044;-73
2021/09/03 12:46:37;;;;;;;5.45;4.35;;;23.70;1.00;;;;;;5048183;28;20044;-72
2021/09/03 12:49:17;;;;;;;4.80;3.85;;;24.10;1.00;;;;;;5076832;28;20156;-72
2021/09/03 12:51:48;;;;;;;5.28;4.57;;;24.10;1.00;;;;;;5072040;28;20044;-72
2021/09/03 12:54:17;;;;;;;6.38;4.45;;;24.30;1.00;;;;;;5077063;28;20044;-72
2021/09/03 12:56:45;;;;;;;6.60;4.75;;;24.50;1.00;;;;;;5074239;28;20078;-72
2021/09/03 12:59:13;;;;;;;7.38;4.90;;;24.50;1.00;;;;;;5078438;28;20047;-72